Terminal Aerodrome Forecast
Issued by NWS Knoxville/Tri Cities, TN

Home | Current Version | Previous Version | Text Only | Print | Product List | Glossary On
Versions: 1 2 3 4 5 6 7 8 9 10 11 12 13 14 15 16 17 18 19 20 21 22 23 24 25 26 27 28 29 30 31 32 33 34 35 36 37 38 39 40 41 42 43
000
FTUS44 KMRX 201340 AAA
TAFTRI
TAF AMD
KTRI 201340Z 2014/2112 15004KT P6SM SCT040 BKN060
     FM201430 VRB05KT 3SM TSRA BR SCT015 BKN030CB
     FM201530 26006KT P6SM SCT040 BKN050
     FM201700 26006KT P6SM SCT040
     FM202300 VRB02KT P6SM FEW050 BKN200
     FM210600 00000KT 5SM BR BKN120=

USA.gov is the U.S. government's official web portal to all federal, state and local government web resources and services.